Terminal Aerodrome Forecast
Issued by NWS Melbourne, FL

Current Version | Previous Version | Text Only | Print | Product List | Glossary On
Versions: 1 2 3 4 5 6 7 8 9 10 11 12 13 14 15 16 17 18 19 20 21 22 23 24 25 26 27
162
FTUS42 KMLB 232047 AAA
TAFMCO
TAF AMD
KMCO 232047Z 2321/2418 03009KT P6SM VCSH SCT030 SCT070 BKN100
     FM240000 36007KT P6SM SCT035 SCT200
     FM240800 35006KT P6SM BKN008
      TEMPO 2409/2412 4SM BR BKN005
     FM241300 02006KT P6SM SCT008 SCT025=

USA.gov is the U.S. government's official web portal to all federal, state and local government web resources and services.